createdAt,value
2022-08-11T00:01:26.262Z,1.85
2022-08-11T00:04:05.752Z,1.70
2022-08-11T00:06:37.330Z,1.58
2022-08-11T00:09:09.318Z,1.80
2022-08-11T00:11:53.447Z,1.58
2022-08-11T00:14:37.107Z,1.40
2022-08-11T00:17:09.587Z,1.58
2022-08-11T00:20:12.300Z,1.73
2022-08-11T00:22:30.149Z,1.63
2022-08-11T00:25:02.446Z,2.25
2022-08-11T00:27:37.654Z,1.45
2022-08-11T00:30:09.444Z,1.90
2022-08-11T00:32:40.543Z,1.60
2022-08-11T00:35:55.548Z,1.70
2022-08-11T00:38:02.708Z,1.70
2022-08-11T00:41:07.130Z,2.15
2022-08-11T00:43:50.011Z,2.00
2022-08-11T00:46:25.898Z,1.50
2022-08-11T00:49:13.475Z,2.17
2022-08-11T00:52:17.345Z,1.60
2022-08-11T00:55:07.906Z,2.30
2022-08-11T00:58:22.686Z,1.95
2022-08-11T01:01:14.339Z,1.67
2022-08-11T01:04:11.453Z,1.60
2022-08-11T01:06:50.504Z,2.30
2022-08-11T01:09:52.534Z,1.67
2022-08-11T01:12:31.456Z,1.58
2022-08-11T01:15:28.754Z,1.80
2022-08-11T01:18:52.993Z,1.55
2022-08-11T01:22:12.899Z,2.08
2022-08-11T01:24:57.678Z,1.60
2022-08-11T01:28:05.109Z,1.50
2022-08-11T01:31:19.611Z,1.67
2022-08-11T01:34:14.011Z,1.85
2022-08-11T01:36:53.439Z,1.98
2022-08-11T01:39:48.993Z,1.55
2022-08-11T01:43:02.144Z,1.80
2022-08-11T01:45:55.698Z,1.52
2022-08-11T01:48:43.894Z,1.92
2022-08-11T01:52:09.983Z,2.08
2022-08-11T01:55:07.915Z,2.15
2022-08-11T01:57:45.697Z,1.80
2022-08-11T02:00:19.296Z,2.03
2022-08-11T02:03:24.985Z,2.15
2022-08-11T02:06:57.403Z,1.80
2022-08-11T02:09:49.330Z,1.90
2022-08-11T02:12:42.136Z,1.90
2022-08-11T02:15:27.278Z,2.53
2022-08-11T02:18:11.000Z,2.65
2022-08-11T02:21:21.889Z,1.75
2022-08-11T02:24:06.290Z,2.17
2022-08-11T02:26:44.128Z,2.35
2022-08-11T02:29:43.023Z,2.15
2022-08-11T02:32:46.880Z,1.70
2022-08-11T02:35:39.507Z,1.88
2022-08-11T02:38:45.378Z,1.90
2022-08-11T02:42:01.308Z,1.98
2022-08-11T02:44:55.935Z,2.33
2022-08-11T02:48:03.864Z,1.95
2022-08-11T02:50:51.542Z,2.58
2022-08-11T02:53:32.303Z,2.50
2022-08-11T02:56:23.786Z,2.58
2022-08-11T02:59:27.005Z,2.47
2022-08-11T03:02:31.496Z,1.98
2022-08-11T03:05:11.977Z,2.05
2022-08-11T03:07:59.136Z,1.88
2022-08-11T03:11:18.780Z,1.80
2022-08-11T03:14:39.659Z,1.98
2022-08-11T03:17:32.744Z,1.75
2022-08-11T03:20:38.200Z,1.95
2022-08-11T03:23:19.355Z,1.90
2022-08-11T03:26:08.882Z,1.88
2022-08-11T03:29:06.549Z,2.35
2022-08-11T03:32:20.852Z,2.60
2022-08-11T03:34:49.358Z,2.10
2022-08-11T03:37:51.076Z,2.10
2022-08-11T03:42:01.120Z,1.90
2022-08-11T03:44:26.446Z,1.80
2022-08-11T03:47:55.278Z,2.08
2022-08-11T03:50:58.254Z,2.38
2022-08-11T03:53:49.358Z,2.17
2022-08-11T03:56:40.246Z,1.88
2022-08-11T03:59:32.283Z,2.30
2022-08-11T04:02:41.364Z,2.60
2022-08-11T04:05:50.848Z,2.13
2022-08-11T04:09:40.298Z,2.03
2022-08-11T04:12:47.876Z,2.58
2022-08-11T04:16:10.795Z,2.45
2022-08-11T04:19:36.187Z,2.40
2022-08-11T04:22:22.032Z,2.20
2022-08-11T04:25:25.411Z,2.75
2022-08-11T04:28:50.159Z,2.28
2022-08-11T04:31:52.472Z,2.13
2022-08-11T04:34:34.559Z,2.38
2022-08-11T04:37:34.663Z,2.70
2022-08-11T04:40:51.454Z,2.67
2022-08-11T04:44:06.122Z,2.40
2022-08-11T04:48:04.221Z,2.33
2022-08-11T04:51:16.562Z,2.22
2022-08-11T04:54:33.091Z,2.65
2022-08-11T04:57:27.729Z,2.38
2022-08-11T05:00:24.678Z,3.67
2022-08-11T05:03:10.171Z,2.65
2022-08-11T05:06:46.152Z,2.45
2022-08-11T05:09:39.866Z,2.33
2022-08-11T05:12:20.203Z,2.63
2022-08-11T05:15:11.247Z,2.50
2022-08-11T05:18:29.006Z,2.70
2022-08-11T05:21:16.401Z,2.65
2022-08-11T05:24:16.692Z,2.40
2022-08-11T05:27:13.399Z,2.65
2022-08-11T05:30:06.013Z,2.83
2022-08-11T05:33:02.612Z,3.08
2022-08-11T05:36:01.896Z,2.70
2022-08-11T05:38:53.288Z,2.95
2022-08-11T05:41:44.623Z,2.97
2022-08-11T05:44:37.123Z,2.85
2022-08-11T05:47:23.438Z,3.10
2022-08-11T05:50:13.602Z,2.95
2022-08-11T05:53:04.714Z,2.83
2022-08-11T05:56:02.948Z,2.80
2022-08-11T05:58:42.789Z,2.45
2022-08-11T06:01:13.628Z,2.58
2022-08-11T06:04:03.880Z,2.88
2022-08-11T06:06:31.545Z,2.83
2022-08-11T06:09:01.180Z,4.50
2022-08-11T06:11:43.891Z,4.35
2022-08-11T06:14:12.859Z,5.55
2022-08-11T06:16:42.645Z,5.30
2022-08-11T06:19:10.593Z,5.32
2022-08-11T06:21:38.553Z,5.97
2022-08-11T06:24:13.091Z,6.18
2022-08-11T06:27:01.637Z,6.53
2022-08-11T06:29:38.302Z,6.65
2022-08-11T06:32:16.776Z,6.40
2022-08-11T06:35:48.293Z,6.25
2022-08-11T06:38:36.969Z,5.90
2022-08-11T06:41:53.650Z,5.80
2022-08-11T06:44:44.027Z,6.00
2022-08-11T06:47:16.219Z,6.13
2022-08-11T06:50:06.470Z,5.93
2022-08-11T06:52:39.288Z,6.30
2022-08-11T06:55:57.616Z,5.32
2022-08-11T06:58:56.557Z,5.55
2022-08-11T07:01:38.605Z,5.28
2022-08-11T07:04:09.524Z,5.05
2022-08-11T07:07:11.247Z,5.72
2022-08-11T07:10:39.278Z,5.50
2022-08-11T07:13:43.176Z,4.85
2022-08-11T07:16:19.324Z,5.07
2022-08-11T07:19:20.405Z,5.60
2022-08-11T07:22:07.677Z,5.72
2022-08-11T07:25:08.532Z,5.88
2022-08-11T07:28:08.965Z,4.68
2022-08-11T07:30:40.951Z,5.57
2022-08-11T07:33:10.944Z,4.60
2022-08-11T07:36:00.441Z,4.32
2022-08-11T07:38:45.055Z,4.03
2022-08-11T07:41:17.019Z,3.83
2022-08-11T07:43:49.121Z,3.30
2022-08-11T07:46:36.790Z,3.70
2022-08-11T07:49:25.767Z,3.63
2022-08-11T07:52:13.565Z,3.50
2022-08-11T07:54:41.729Z,3.05
2022-08-11T07:58:10.185Z,2.90
2022-08-11T08:00:38.137Z,2.55
2022-08-11T08:03:25.427Z,2.95
2022-08-11T08:06:28.420Z,2.92
2022-08-11T08:09:18.361Z,2.40
2022-08-11T08:12:05.733Z,2.28
2022-08-11T08:14:53.423Z,2.30
2022-08-11T08:17:41.460Z,2.25
2022-08-11T08:20:14.635Z,2.50
2022-08-11T08:22:47.883Z,2.03
2022-08-11T08:25:18.118Z,2.25
2022-08-11T08:27:45.716Z,2.65
2022-08-11T08:30:32.363Z,1.90
2022-08-11T08:33:01.204Z,1.35
2022-08-11T08:35:32.932Z,1.52
2022-08-11T08:38:00.896Z,1.70
2022-08-11T08:40:28.425Z,2.08
2022-08-11T08:43:10.222Z,2.72
2022-08-11T08:45:38.622Z,2.17
2022-08-11T08:48:13.435Z,1.55
2022-08-11T08:51:08.125Z,2.03
2022-08-11T08:53:39.770Z,1.42
2022-08-11T08:56:28.188Z,1.45
2022-08-11T08:58:58.100Z,1.25
2022-08-11T09:01:29.766Z,1.52
2022-08-11T09:04:06.877Z,1.38
2022-08-11T09:06:43.723Z,1.40
2022-08-11T09:09:16.374Z,1.40
2022-08-11T09:11:50.322Z,1.58
2022-08-11T09:14:51.314Z,1.52
2022-08-11T09:17:20.452Z,1.20
2022-08-11T09:19:49.556Z,1.63
2022-08-11T09:22:46.986Z,1.45
2022-08-11T09:25:34.414Z,1.50
2022-08-11T09:28:03.134Z,1.70
2022-08-11T09:30:30.336Z,1.25
2022-08-11T09:33:01.638Z,1.45
2022-08-11T09:35:31.626Z,1.50
2022-08-11T09:38:18.965Z,1.45
2022-08-11T09:40:56.148Z,1.17
2022-08-11T09:43:44.324Z,1.35
2022-08-11T09:46:12.238Z,1.30
2022-08-11T09:48:46.186Z,1.30
2022-08-11T09:51:14.080Z,1.55
2022-08-11T09:53:47.225Z,1.70
2022-08-11T09:56:49.257Z,1.33
2022-08-11T09:59:20.625Z,1.65
2022-08-11T10:01:59.224Z,1.77
2022-08-11T10:04:54.235Z,1.33
2022-08-11T10:07:21.758Z,1.40
2022-08-11T10:09:59.117Z,1.33
2022-08-11T10:12:37.271Z,1.27
2022-08-11T10:15:28.414Z,1.30
2022-08-11T10:18:30.044Z,1.25
2022-08-11T10:21:03.197Z,1.38
2022-08-11T10:24:00.606Z,1.55
2022-08-11T10:26:54.800Z,1.25
2022-08-11T10:29:45.115Z,1.58
2022-08-11T10:32:57.205Z,1.30
2022-08-11T10:35:30.951Z,1.05
2022-08-11T10:38:07.575Z,1.45
2022-08-11T10:40:46.049Z,1.38
2022-08-11T10:43:59.309Z,1.02
2022-08-11T10:46:29.634Z,1.00
2022-08-11T10:48:59.167Z,1.00
2022-08-11T10:51:51.064Z,1.17
2022-08-11T10:54:41.654Z,1.15
2022-08-11T10:57:28.010Z,1.20
2022-08-11T10:59:56.732Z,2.05
2022-08-11T11:02:26.109Z,1.02
2022-08-11T11:05:03.443Z,1.23
2022-08-11T11:07:48.007Z,1.30
2022-08-11T11:10:15.950Z,1.02
2022-08-11T11:13:05.130Z,0.77
2022-08-11T11:15:54.741Z,0.90
2022-08-11T11:18:34.087Z,0.98
2022-08-11T11:21:10.565Z,1.00
2022-08-11T11:23:59.938Z,0.90
2022-08-11T11:26:56.288Z,1.92
2022-08-11T11:29:41.432Z,1.20
2022-08-11T11:35:15.985Z,1.30
2022-08-11T11:38:03.560Z,0.98
2022-08-11T11:40:32.831Z,1.20
2022-08-11T11:43:01.312Z,0.90
2022-08-11T11:45:29.055Z,1.23
2022-08-11T11:47:59.905Z,1.20
2022-08-11T11:50:36.909Z,0.82
2022-08-11T11:53:10.194Z,1.63
2022-08-11T11:55:37.996Z,1.95
2022-08-11T11:58:24.760Z,1.00
2022-08-11T12:01:12.412Z,0.93
2022-08-11T12:03:40.996Z,1.70
2022-08-11T12:06:14.111Z,1.17
2022-08-11T12:08:43.112Z,1.60
2022-08-11T12:11:31.266Z,1.00
2022-08-11T12:14:03.096Z,1.02
2022-08-11T12:16:36.828Z,1.10
2022-08-11T12:19:12.197Z,0.93
2022-08-11T12:22:04.242Z,1.10
2022-08-11T12:24:51.639Z,0.73
2022-08-11T12:27:24.152Z,0.95
2022-08-11T12:30:08.636Z,0.90
2022-08-11T12:32:40.218Z,0.80
2022-08-11T12:35:08.363Z,1.15
2022-08-11T12:37:41.210Z,1.17
2022-08-11T12:40:42.865Z,0.93
2022-08-11T12:43:56.813Z,1.00
2022-08-11T12:46:31.985Z,1.05
2022-08-11T12:49:29.091Z,0.82
2022-08-11T12:52:11.272Z,0.73
2022-08-11T12:57:56.278Z,1.10
2022-08-11T13:00:43.646Z,1.15
2022-08-11T13:03:30.786Z,1.10
2022-08-11T13:06:01.874Z,0.80
2022-08-11T13:08:33.179Z,1.02
2022-08-11T13:11:20.059Z,1.55
2022-08-11T13:13:54.906Z,0.80
2022-08-11T13:16:53.681Z,0.95
2022-08-11T13:19:22.157Z,1.02
2022-08-11T13:21:53.574Z,1.13
2022-08-11T13:24:22.871Z,1.00
2022-08-11T13:26:51.601Z,1.00
2022-08-11T13:29:24.714Z,1.00
2022-08-11T13:31:58.228Z,0.77
2022-08-11T13:34:28.082Z,1.20
2022-08-11T13:36:59.301Z,0.70
2022-08-11T13:39:30.469Z,0.90
2022-08-11T13:41:59.810Z,1.23
2022-08-11T13:44:33.831Z,0.88
2022-08-11T13:47:07.321Z,1.10
2022-08-11T13:49:40.007Z,0.90
2022-08-11T13:52:13.135Z,1.30
2022-08-11T13:54:42.365Z,0.93
2022-08-11T13:57:13.795Z,0.70
2022-08-11T14:00:12.979Z,1.00
2022-08-11T14:02:52.691Z,0.95
2022-08-11T14:05:26.479Z,0.90
2022-08-11T14:08:00.155Z,0.95
2022-08-11T14:10:30.702Z,0.95
2022-08-11T14:13:42.199Z,1.02
2022-08-11T14:16:20.698Z,0.77
2022-08-11T14:18:51.616Z,0.88
2022-08-11T14:21:40.604Z,0.90
2022-08-11T14:24:08.642Z,0.85
2022-08-11T14:26:39.119Z,0.88
2022-08-11T14:29:14.548Z,1.00
2022-08-11T14:31:50.354Z,0.93
2022-08-11T14:34:21.692Z,1.10
2022-08-11T14:36:56.670Z,1.10
2022-08-11T14:39:27.993Z,1.52
2022-08-11T14:42:18.575Z,0.90
2022-08-11T14:45:25.006Z,1.33
2022-08-11T14:48:12.302Z,1.23
2022-08-11T14:50:40.355Z,0.93
2022-08-11T14:53:17.928Z,1.13
2022-08-11T14:56:04.773Z,1.00
2022-08-11T14:58:33.867Z,1.00
2022-08-11T15:01:02.903Z,1.00
2022-08-11T15:03:33.547Z,1.00
2022-08-11T15:06:02.804Z,0.85
2022-08-11T15:08:52.123Z,0.90
2022-08-11T15:11:41.158Z,1.02
2022-08-11T15:14:10.300Z,0.95
2022-08-11T15:17:03.163Z,0.95
2022-08-11T15:19:37.529Z,1.00
2022-08-11T15:22:30.704Z,1.33
2022-08-11T15:24:59.643Z,1.48
2022-08-11T15:27:48.476Z,1.52
2022-08-11T15:30:34.650Z,0.80
2022-08-11T15:33:27.606Z,0.90
2022-08-11T15:36:15.390Z,1.05
2022-08-11T15:38:55.395Z,1.42
2022-08-11T15:42:12.909Z,1.27
2022-08-11T15:45:03.466Z,0.93
2022-08-11T15:47:42.858Z,1.50
2022-08-11T15:50:16.552Z,1.00
2022-08-11T15:52:53.410Z,0.85
2022-08-11T15:55:23.598Z,1.00
2022-08-11T15:58:12.653Z,0.90
2022-08-11T16:01:04.189Z,1.35
2022-08-11T16:04:12.442Z,1.17
2022-08-11T16:07:06.556Z,0.90
2022-08-11T16:10:00.803Z,1.38
2022-08-11T16:12:41.807Z,0.75
2022-08-11T16:15:29.642Z,1.00
2022-08-11T16:18:03.999Z,0.80
2022-08-11T16:20:32.562Z,0.95
2022-08-11T16:23:04.960Z,0.90
2022-08-11T16:27:02.077Z,0.90
2022-08-11T16:28:24.486Z,0.85
2022-08-11T16:30:53.427Z,0.82
2022-08-11T16:33:50.762Z,0.90
2022-08-11T16:36:30.426Z,1.02
2022-08-11T16:38:59.757Z,0.85
2022-08-11T16:41:50.363Z,1.20
2022-08-11T16:44:38.367Z,0.60
2022-08-11T16:47:16.880Z,0.93
2022-08-11T16:49:52.248Z,0.77
2022-08-11T16:52:20.511Z,1.13
2022-08-11T16:54:47.685Z,0.98
2022-08-11T16:57:46.175Z,0.98
2022-08-11T17:00:16.803Z,0.90
2022-08-11T17:03:28.681Z,0.70
2022-08-11T17:06:14.191Z,0.90
2022-08-11T17:09:07.685Z,0.77
2022-08-11T17:12:01.116Z,0.90
2022-08-11T17:14:59.909Z,0.68
2022-08-11T17:17:37.344Z,1.33
2022-08-11T17:20:40.173Z,0.93
2022-08-11T17:23:16.742Z,1.00
2022-08-11T17:26:03.292Z,0.80
2022-08-11T17:28:32.131Z,0.90
2022-08-11T17:31:22.265Z,1.23
2022-08-11T17:34:10.248Z,0.60
2022-08-11T17:36:41.589Z,0.85
2022-08-11T17:39:13.359Z,0.80
2022-08-11T17:41:59.171Z,1.00
2022-08-11T17:44:46.195Z,0.88
2022-08-11T17:47:33.377Z,0.77
2022-08-11T17:50:14.576Z,0.75
2022-08-11T17:53:05.171Z,0.73
2022-08-11T17:55:53.696Z,1.08
2022-08-11T17:58:40.527Z,0.60
2022-08-11T18:01:10.878Z,1.08
2022-08-11T18:03:40.775Z,0.88
2022-08-11T18:06:12.574Z,0.73
2022-08-11T18:09:03.903Z,1.15
2022-08-11T18:12:10.722Z,0.90
2022-08-11T18:15:01.015Z,0.93
2022-08-11T18:17:46.548Z,1.67
2022-08-11T18:20:32.007Z,0.85
2022-08-11T18:23:20.187Z,0.93
2022-08-11T18:26:07.661Z,0.73
2022-08-11T18:29:05.303Z,0.70
2022-08-11T18:32:01.099Z,1.10
2022-08-11T18:34:52.969Z,0.90
2022-08-11T18:37:46.158Z,0.77
2022-08-11T18:40:43.617Z,1.02
2022-08-11T18:43:33.135Z,0.70
2022-08-11T18:46:25.846Z,0.63
2022-08-11T18:49:18.352Z,0.73
2022-08-11T18:52:11.545Z,1.17
2022-08-11T18:55:00.722Z,1.85
2022-08-11T18:57:53.897Z,0.98
2022-08-11T19:00:42.164Z,1.08
2022-08-11T19:03:31.410Z,1.08
2022-08-11T19:06:38.850Z,0.82
2022-08-11T19:09:31.834Z,1.10
2022-08-11T19:12:19.091Z,2.95
2022-08-11T19:15:07.421Z,2.80
2022-08-11T19:17:57.745Z,1.92
2022-08-11T19:20:47.820Z,1.25
2022-08-11T19:23:39.966Z,0.68
2022-08-11T19:26:26.648Z,1.30
2022-08-11T19:30:06.982Z,1.20
2022-08-11T19:32:20.408Z,1.40
2022-08-11T19:35:06.894Z,1.05
2022-08-11T19:37:54.717Z,1.83
2022-08-11T19:40:41.962Z,0.98
2022-08-11T19:43:28.881Z,1.13
2022-08-11T19:46:18.040Z,0.93
2022-08-11T19:49:09.114Z,1.02
2022-08-11T19:51:56.264Z,1.02
2022-08-11T19:54:51.952Z,1.00
2022-08-11T19:57:40.569Z,1.00
2022-08-11T20:00:37.789Z,1.30
2022-08-11T20:03:27.751Z,0.77
2022-08-11T20:06:19.586Z,0.90
2022-08-11T20:09:07.970Z,1.35
2022-08-11T20:11:58.117Z,1.00
2022-08-11T20:14:47.035Z,1.70
2022-08-11T20:17:34.032Z,1.20
2022-08-11T20:20:24.366Z,0.82
2022-08-11T20:23:13.014Z,0.73
2022-08-11T20:26:13.969Z,1.17
2022-08-11T20:29:02.250Z,1.40
2022-08-11T20:31:49.777Z,1.00
2022-08-11T20:34:36.817Z,1.20
2022-08-11T20:37:24.768Z,1.08
2022-08-11T20:40:13.113Z,1.08
2022-08-11T20:43:01.199Z,1.23
2022-08-11T20:45:55.207Z,1.20
2022-08-11T20:48:43.513Z,1.05
2022-08-11T20:51:36.784Z,1.15
2022-08-11T20:54:38.326Z,1.23
2022-08-11T20:57:54.595Z,1.90
2022-08-11T21:00:41.044Z,0.90
2022-08-11T21:03:36.066Z,1.67
2022-08-11T21:06:33.043Z,1.30
2022-08-11T21:09:25.046Z,1.30
2022-08-11T21:12:31.548Z,1.30
2022-08-11T21:15:47.595Z,1.70
2022-08-11T21:18:28.323Z,1.70
2022-08-11T21:21:18.535Z,1.40
2022-08-11T21:24:05.638Z,1.48
2022-08-11T21:26:53.702Z,1.60
2022-08-11T21:29:42.368Z,1.70
2022-08-11T21:32:28.899Z,1.30
2022-08-11T21:35:16.913Z,1.15
2022-08-11T21:38:03.546Z,1.63
2022-08-11T21:40:54.201Z,1.45
2022-08-11T21:43:41.290Z,2.08
2022-08-11T21:46:28.250Z,1.95
2022-08-11T21:49:20.681Z,1.60
2022-08-11T21:52:06.101Z,1.30
2022-08-11T21:54:51.402Z,1.17
2022-08-11T21:57:37.688Z,1.40
2022-08-11T22:00:35.529Z,1.30
2022-08-11T22:03:23.174Z,1.50
2022-08-11T22:06:09.773Z,1.30
2022-08-11T22:08:55.734Z,1.58
2022-08-11T22:11:41.161Z,1.20
2022-08-11T22:14:26.710Z,1.40
2022-08-11T22:17:11.923Z,1.33
2022-08-11T22:20:00.599Z,1.70
2022-08-11T22:22:52.707Z,1.30
2022-08-11T22:25:46.515Z,1.60
2022-08-11T22:28:38.472Z,1.40
2022-08-11T22:31:25.592Z,1.10
2022-08-11T22:34:11.445Z,1.20
2022-08-11T22:39:45.531Z,1.70
2022-08-11T22:42:50.945Z,2.40
2022-08-11T22:45:37.800Z,1.45
2022-08-11T22:48:28.029Z,1.90
2022-08-11T22:51:14.397Z,1.33
2022-08-11T22:54:01.622Z,1.35
2022-08-11T22:56:48.594Z,1.30
2022-08-11T22:59:36.248Z,1.25
2022-08-11T23:02:23.774Z,1.30
2022-08-11T23:05:10.526Z,1.30
2022-08-11T23:07:56.949Z,1.42
2022-08-11T23:10:43.285Z,1.58
2022-08-11T23:13:29.502Z,1.92
2022-08-11T23:16:16.108Z,1.40
2022-08-11T23:19:02.815Z,1.40
2022-08-11T23:21:50.371Z,1.50
2022-08-11T23:24:36.638Z,2.28
2022-08-11T23:27:24.900Z,2.03
2022-08-11T23:30:13.992Z,1.63
2022-08-11T23:33:07.220Z,1.70
2022-08-11T23:35:57.933Z,1.27
2022-08-11T23:38:47.042Z,1.73
2022-08-11T23:41:34.218Z,1.27
2022-08-11T23:44:21.967Z,1.45
2022-08-11T23:47:12.254Z,1.85
2022-08-11T23:50:00.407Z,1.75
2022-08-11T23:52:47.156Z,1.60
2022-08-11T23:55:32.949Z,1.83
2022-08-11T23:58:18.808Z,1.58
